Time;durP1;ratioP1;P1;durP2;ratioP2;P2;SDS_P1;SDS_P2;PMS_P1;PMS_P2;Temp;Humidity;BMP_temperature;BMP_pressure;BME280_temperature;BME280_humidity;BME280_pressure;Samples;Min_cycle;Max_cycle;Signal;HPM_P1;HPM_P2
2022/07/06 00:00:22;;;;;;;7.50;2.70;;;;;;;22.41;57.35;100463.06;2097777;28;20075;-74
2022/07/06 00:01:44;;;;;;;10.52;2.97;;;;;;;22.49;57.18;100464.56;2103795;28;20040;-75
2022/07/06 00:03:07;;;;;;;9.60;3.10;;;;;;;22.58;56.98;100468.69;2100167;28;20063;-75
2022/07/06 00:04:30;;;;;;;6.88;2.97;;;;;;;22.62;56.78;100462.25;2093911;28;20067;-75
2022/07/06 00:05:52;;;;;;;7.22;2.50;;;;;;;22.64;56.63;100463.94;2107863;28;20035;-75
2022/07/06 00:07:17;;;;;;;9.82;3.10;;;;;;;22.70;56.62;100457.47;2103089;28;20048;-75
2022/07/06 00:08:40;;;;;;;8.98;3.40;;;;;;;22.75;56.31;100458.19;2095983;28;20075;-74
2022/07/06 00:10:02;;;;;;;7.43;2.33;;;;;;;22.74;56.30;100456.44;2097900;28;20691;-75
2022/07/06 00:11:24;;;;;;;5.50;2.33;;;;;;;22.78;56.35;100457.16;2096678;28;20072;-75
2022/07/06 00:12:46;;;;;;;6.97;2.47;;;;;;;22.78;56.31;100455.34;2094999;28;20406;-75
2022/07/06 00:14:07;;;;;;;7.35;2.50;;;;;;;22.80;56.23;100468.75;2096568;28;20147;-75
2022/07/06 00:15:30;;;;;;;9.95;2.80;;;;;;;22.82;56.19;100454.31;2094217;28;20076;-75
2022/07/06 00:16:52;;;;;;;9.55;2.67;;;;;;;22.86;56.11;100452.38;2094227;28;20075;-75
2022/07/06 00:18:14;;;;;;;8.43;2.83;;;;;;;22.90;55.96;100443.25;2110923;28;20047;-74
2022/07/06 00:19:36;;;;;;;7.65;2.42;;;;;;;22.96;55.89;100445.69;2098979;28;20117;-74
2022/07/06 00:20:58;;;;;;;9.05;2.40;;;;;;;22.99;55.68;100448.25;2096095;28;20406;-75
2022/07/06 00:22:22;;;;;;;8.52;2.85;;;;;;;23.00;55.51;100436.53;2109065;28;20584;-75
2022/07/06 00:23:44;;;;;;;6.35;2.95;;;;;;;22.94;55.54;100451.13;2102555;28;20064;-75
2022/07/06 00:25:08;;;;;;;9.20;2.45;;;;;;;22.85;55.82;100447.91;2105229;28;20039;-75
2022/07/06 00:26:29;;;;;;;6.28;2.55;;;;;;;22.78;56.00;100444.59;2104144;28;20066;-75
2022/07/06 00:27:52;;;;;;;7.57;3.17;;;;;;;22.78;56.06;100441.03;2099543;28;20564;-75
2022/07/06 00:29:14;;;;;;;4.43;1.90;;;;;;;22.85;56.05;100439.84;2096946;28;20059;-75
2022/07/06 00:30:37;;;;;;;8.30;2.75;;;;;;;22.94;55.83;100436.78;2105865;28;20284;-75
2022/07/06 00:31:59;;;;;;;9.27;3.22;;;;;;;22.98;55.66;100446.47;2093409;28;20098;-75
2022/07/06 00:33:23;;;;;;;12.55;2.75;;;;;;;23.00;55.55;100441.94;2106496;28;20131;-75
2022/07/06 00:34:45;;;;;;;7.38;2.90;;;;;;;23.00;55.33;100440.09;2101690;28;20040;-75
2022/07/06 00:36:07;;;;;;;8.60;2.67;;;;;;;22.95;55.47;100447.50;2101988;28;20083;-75
2022/07/06 00:37:31;;;;;;;8.45;2.65;;;;;;;22.91;55.59;100437.78;2103615;28;20055;-75
2022/07/06 00:38:53;;;;;;;10.20;3.22;;;;;;;22.88;55.86;100447.81;2102426;28;20517;-76
2022/07/06 00:40:15;;;;;;;6.03;2.55;;;;;;;22.86;55.88;100446.97;2103944;28;20100;-75
2022/07/06 00:41:37;;;;;;;9.32;2.20;;;;;;;22.87;55.94;100448.75;2105105;28;20063;-75
2022/07/06 00:43:00;;;;;;;7.35;2.60;;;;;;;22.91;55.91;100444.97;2094527;28;20049;-76
2022/07/06 00:44:21;;;;;;;8.15;2.60;;;;;;;22.93;55.89;100440.41;2099382;28;20153;-75
2022/07/06 00:45:44;;;;;;;6.28;2.90;;;;;;;22.94;55.87;100432.28;2104940;28;20406;-77
2022/07/06 00:47:07;;;;;;;8.02;2.45;;;;;;;22.99;55.98;100432.09;2094103;28;20039;-76
2022/07/06 00:48:30;;;;;;;7.30;2.65;;;;;;;23.09;55.75;100441.56;2098454;28;20048;-75
2022/07/06 00:51:37;;;;;;;9.82;3.08;;;;;;;23.17;55.46;100441.25;2103870;28;20047;-75
2022/07/06 00:53:03;;;;;;;7.13;2.67;;;;;;;23.18;55.42;100433.09;2096769;28;20634;-75
2022/07/06 00:54:25;;;;;;;6.47;2.85;;;;;;;23.18;55.33;100442.97;2100670;28;20405;-76
2022/07/06 00:55:48;;;;;;;6.68;2.53;;;;;;;23.17;55.43;100444.78;2117877;27;20275;-75
2022/07/06 00:57:11;;;;;;;7.40;2.30;;;;;;;23.16;55.53;100437.69;2107711;28;20056;-75
2022/07/06 00:58:32;;;;;;;6.35;2.42;;;;;;;23.21;55.43;100435.66;2098518;28;20075;-75
2022/07/06 00:59:56;;;;;;;14.73;2.60;;;;;;;23.25;55.62;100433.69;2096863;28;20122;-75
2022/07/06 01:01:18;;;;;;;7.97;3.50;;;;;;;23.26;55.64;100433.66;2094621;28;20052;-76
2022/07/06 01:02:40;;;;;;;7.95;2.60;;;;;;;23.25;55.59;100433.69;2090961;28;20127;-76
2022/07/06 01:04:03;;;;;;;8.50;2.67;;;;;;;23.26;55.53;100435.47;2101833;28;20066;-75
2022/07/06 01:05:24;;;;;;;6.57;2.15;;;;;;;23.29;55.52;100432.66;2102248;28;20114;-75
2022/07/06 01:06:47;;;;;;;12.63;3.15;;;;;;;23.32;55.65;100432.50;2106818;28;20051;-75
2022/07/06 01:08:12;;;;;;;6.75;2.53;;;;;;;23.35;55.74;100433.28;2101111;28;20203;-75
2022/07/06 01:09:34;;;;;;;6.85;2.53;;;;;;;23.38;55.83;100443.03;2105104;28;20043;-75
2022/07/06 01:10:57;;;;;;;7.50;2.47;;;;;;;23.37;55.85;100431.38;2105269;28;20043;-75
2022/07/06 01:12:20;;;;;;;6.38;2.60;;;;;;;23.37;56.00;100435.88;2093678;28;20072;-75
2022/07/06 01:13:43;;;;;;;6.60;2.72;;;;;;;23.38;56.40;100434.94;2098386;28;20055;-74
2022/07/06 01:15:06;;;;;;;10.20;2.50;;;;;;;23.39;56.38;100437.56;2094921;28;20037;-75
2022/07/06 01:16:29;;;;;;;9.45;2.28;;;;;;;23.42;56.45;100433.88;2099988;28;20052;-75
2022/07/06 01:17:52;;;;;;;3.95;2.05;;;;;;;23.43;56.55;100438.34;2093770;28;20056;-75
2022/07/06 01:19:18;;;;;;;6.78;2.70;;;;;;;23.42;56.46;100434.78;2100914;28;20075;-75
2022/07/06 01:20:42;;;;;;;6.90;2.20;;;;;;;23.46;56.59;100430.13;2094764;28;20134;-75
2022/07/06 01:22:04;;;;;;;5.03;1.88;;;;;;;23.46;56.62;100435.50;2095381;28;20106;-75
2022/07/06 01:23:27;;;;;;;6.82;2.83;;;;;;;23.45;56.66;100426.53;2093398;28;20075;-75
2022/07/06 01:24:48;;;;;;;9.35;2.50;;;;;;;23.48;56.91;100428.28;2097229;28;20055;-75
2022/07/06 01:26:15;;;;;;;5.88;2.25;;;;;;;23.52;56.94;100432.56;2095836;28;20443;-75
2022/07/06 01:27:39;;;;;;;9.70;2.30;;;;;;;23.53;56.96;100422.69;2087763;28;20044;-75
2022/07/06 01:29:01;;;;;;;8.25;2.38;;;;;;;23.55;56.96;100429.75;2091782;28;20048;-75
2022/07/06 01:30:23;;;;;;;10.48;2.63;;;;;;;23.56;57.33;100434.22;2093717;28;20130;-74
2022/07/06 01:31:48;;;;;;;6.45;2.40;;;;;;;23.58;57.40;100423.34;2096231;28;20067;-75
2022/07/06 01:33:11;;;;;;;8.07;2.38;;;;;;;23.58;57.24;100418.84;2085881;28;20060;-75
2022/07/06 01:34:32;;;;;;;7.20;2.63;;;;;;;23.59;57.33;100419.72;2090845;28;20143;-75
2022/07/06 01:35:56;;;;;;;14.85;4.60;;;;;;;23.61;57.39;100428.63;2092749;28;20040;-75
2022/07/06 01:37:18;;;;;;;5.07;1.85;;;;;;;23.64;57.53;100433.84;2085423;28;20143;-75
2022/07/06 01:38:48;;;;;;;5.93;2.58;;;;;;;23.67;57.68;100426.53;2094009;28;20047;-75
2022/07/06 01:40:12;;;;;;;7.68;2.30;;;;;;;23.68;57.66;100419.31;2100688;28;20052;-74
2022/07/06 01:41:35;;;;;;;5.95;2.33;;;;;;;23.72;57.75;100418.22;2094071;28;20045;-75
2022/07/06 01:42:57;;;;;;;6.85;2.55;;;;;;;23.73;57.45;100420.00;2097621;28;20040;-74
2022/07/06 01:44:19;;;;;;;8.68;2.78;;;;;;;23.74;57.44;100416.34;2093510;28;20064;-74
2022/07/06 01:45:42;;;;;;;4.55;2.00;;;;;;;23.74;57.47;100414.53;2087576;28;20060;-75
2022/07/06 01:47:03;;;;;;;6.53;2.22;;;;;;;23.74;57.57;100419.06;2091121;28;20086;-75
2022/07/06 01:48:26;;;;;;;11.40;2.42;;;;;;;23.73;57.46;100412.78;2095938;28;20560;-75
2022/07/06 01:49:48;;;;;;;6.20;2.28;;;;;;;23.75;57.93;100410.03;2098851;28;20395;-74
2022/07/06 01:51:12;;;;;;;8.82;2.78;;;;;;;23.79;57.86;100414.31;2088166;28;20064;-74
2022/07/06 01:52:34;;;;;;;5.90;2.25;;;;;;;23.78;57.93;100424.22;2085190;28;20053;-74
2022/07/06 01:53:58;;;;;;;9.73;2.88;;;;;;;23.82;57.93;100425.88;2093967;28;20509;-75
2022/07/06 01:55:22;;;;;;;7.78;3.22;;;;;;;23.83;57.90;100426.72;2090184;28;20041;-75
2022/07/06 01:56:43;;;;;;;7.30;2.10;;;;;;;23.83;58.10;100421.31;2097420;28;20048;-75
2022/07/06 01:58:05;;;;;;;12.13;3.30;;;;;;;23.82;58.06;100420.47;2092878;28;20202;-74
2022/07/06 01:59:27;;;;;;;7.15;2.58;;;;;;;23.82;58.29;100422.28;2090613;28;20049;-75
2022/07/06 02:00:49;;;;;;;7.47;2.15;;;;;;;23.82;58.42;100423.16;2086827;28;20079;-75
2022/07/06 02:02:13;;;;;;;7.43;2.13;;;;;;;23.81;58.55;100425.94;2091173;28;20044;-74
2022/07/06 02:03:36;;;;;;;7.50;2.70;;;;;;;23.83;58.62;100426.72;2086840;28;20140;-75
2022/07/06 02:04:59;;;;;;;7.28;2.65;;;;;;;23.84;58.62;100426.66;2090795;28;20143;-75
2022/07/06 02:06:23;;;;;;;7.63;2.63;;;;;;;23.87;58.31;100420.25;2092354;28;20048;-75
2022/07/06 02:07:46;;;;;;;7.05;2.15;;;;;;;23.88;58.45;100422.00;2095130;28;20056;-75
2022/07/06 02:09:08;;;;;;;7.07;2.17;;;;;;;23.86;58.42;100423.00;2087037;28;20075;-75
2022/07/06 02:10:30;;;;;;;9.20;2.25;;;;;;;23.84;58.52;100426.66;2100956;28;20080;-75
2022/07/06 02:11:52;;;;;;;15.63;2.72;;;;;;;23.86;58.45;100425.72;2093615;28;20468;-75
2022/07/06 02:13:16;;;;;;;4.13;2.25;;;;;;;23.86;58.14;100429.28;2094963;28;20048;-76
2022/07/06 02:14:38;;;;;;;5.22;2.00;;;;;;;23.88;58.37;100430.09;2091317;28;20059;-75
2022/07/06 02:16:00;;;;;;;5.97;2.05;;;;;;;23.89;58.28;100423.78;2092248;28;20041;-75
2022/07/06 02:17:22;;;;;;;;;;;;;;;23.88;58.14;100426.53;2095989;28;20048;-74
2022/07/06 02:18:48;;;;;;;8.35;2.53;;;;;;;23.90;58.17;100430.00;2101880;28;19924;-75
2022/07/06 02:20:10;;;;;;;7.32;2.22;;;;;;;23.91;58.32;100429.94;2101423;28;20541;-75
2022/07/06 02:21:34;;;;;;;8.23;3.05;;;;;;;23.92;57.98;100430.84;2102651;28;20059;-75
2022/07/06 02:22:57;;;;;;;5.35;2.20;;;;;;;23.91;58.14;100432.66;2104390;28;20093;-75
2022/07/06 02:24:20;;;;;;;7.25;2.20;;;;;;;23.91;58.12;100429.94;2090249;28;20509;-76
2022/07/06 02:25:43;;;;;;;8.50;2.55;;;;;;;23.91;58.24;100427.25;2085093;28;20036;-76
2022/07/06 02:27:06;;;;;;;10.10;2.35;;;;;;;23.91;58.44;100445.25;2090330;28;20048;-76
2022/07/06 02:28:27;;;;;;;7.18;2.53;;;;;;;23.90;58.36;100436.28;2090551;28;20052;-75
2022/07/06 02:29:50;;;;;;;9.85;3.05;;;;;;;23.91;58.40;100429.06;2094730;28;20044;-75
2022/07/06 02:31:13;;;;;;;7.13;2.65;;;;;;;23.91;58.36;100429.06;2092726;28;20052;-75
2022/07/06 02:32:35;;;;;;;7.72;2.10;;;;;;;23.92;58.32;100426.31;2094765;28;20156;-75
2022/07/06 02:33:58;;;;;;;6.15;2.30;;;;;;;23.94;58.48;100423.56;2088138;28;20447;-75
2022/07/06 02:35:21;;;;;;;8.20;2.47;;;;;;;23.95;58.40;100428.00;2087496;28;20148;-75
2022/07/06 02:36:45;;;;;;;7.38;2.85;;;;;;;23.95;58.42;100422.63;2095018;28;20150;-75
2022/07/06 02:38:06;;;;;;;7.38;2.25;;;;;;;23.95;58.27;100426.19;2086886;28;20084;-75
2022/07/06 02:39:29;;;;;;;9.57;2.35;;;;;;;23.96;58.48;100427.06;2084175;28;20651;-74
2022/07/06 02:40:52;;;;;;;8.93;2.45;;;;;;;23.98;58.29;100428.72;2088575;28;20482;-75
2022/07/06 02:42:14;;;;;;;7.55;2.30;;;;;;;23.99;58.15;100425.09;2095125;28;20581;-75
2022/07/06 02:43:38;;;;;;;7.13;2.30;;;;;;;24.00;58.39;100418.75;2087015;28;20057;-75
2022/07/06 02:45:01;;;;;;;7.25;2.20;;;;;;;24.02;58.30;100430.38;2093971;28;20047;-75
2022/07/06 02:46:25;;;;;;;8.15;2.38;;;;;;;24.00;58.04;100413.38;2092518;28;20420;-75
2022/07/06 02:47:48;;;;;;;4.65;2.45;;;;;;;24.00;58.11;100409.78;2086646;28;20560;-75
2022/07/06 02:49:10;;;;;;;9.05;2.70;;;;;;;24.02;58.23;100421.41;2084131;28;20084;-75
2022/07/06 02:50:33;;;;;;;6.88;2.35;;;;;;;24.04;58.00;100436.53;2086650;28;20044;-74
2022/07/06 02:51:56;;;;;;;6.78;2.08;;;;;;;24.07;57.88;100424.75;2091892;28;20037;-75
2022/07/06 02:53:19;;;;;;;6.97;2.58;;;;;;;24.06;57.97;100423.88;2092491;28;20494;-75
2022/07/06 02:54:45;;;;;;;6.25;2.10;;;;;;;24.05;57.95;100419.44;2085037;28;20045;-75
2022/07/06 02:56:07;;;;;;;5.30;2.20;;;;;;;24.06;57.97;100423.88;2085061;28;20098;-75
2022/07/06 02:57:29;;;;;;;;;;;;;;;24.08;57.77;100434.59;2092675;28;20556;-75
2022/07/06 02:58:52;;;;;;;7.35;1.80;;;;;;;24.06;57.96;100429.28;2089086;28;19927;-75
2022/07/06 03:00:16;;;;;;;8.23;1.90;;;;;;;24.08;57.80;100438.19;2086734;28;20086;-75
2022/07/06 03:01:40;;;;;;;7.60;2.47;;;;;;;24.07;57.68;100433.72;2087911;28;20049;-74
2022/07/06 03:03:01;;;;;;;6.93;2.30;;;;;;;24.09;57.76;100428.28;2086758;28;20056;-75
2022/07/06 03:04:25;;;;;;;8.00;1.95;;;;;;;24.10;57.69;100432.69;2086804;28;20133;-75
2022/07/06 03:05:48;;;;;;;8.20;2.30;;;;;;;24.10;57.62;100425.47;2084420;28;20044;-75
2022/07/06 03:07:14;;;;;;;5.97;2.35;;;;;;;24.15;57.49;100428.88;2101264;28;20154;-75
2022/07/06 03:08:37;;;;;;;5.07;2.20;;;;;;;24.17;57.37;100443.13;2092810;28;20505;-75
2022/07/06 03:09:58;;;;;;;7.28;1.90;;;;;;;24.17;57.51;100426.94;2094709;28;20106;-74
2022/07/06 03:11:21;;;;;;;8.27;2.88;;;;;;;24.18;57.37;100433.22;2086610;28;20130;-74
2022/07/06 03:12:44;;;;;;;6.55;2.15;;;;;;;24.18;57.39;100431.41;2083190;28;20147;-75
2022/07/06 03:14:06;;;;;;;8.45;2.38;;;;;;;24.22;57.04;100432.16;2083184;28;20084;-74
2022/07/06 03:15:31;;;;;;;5.18;2.08;;;;;;;24.23;56.83;100426.69;2076321;28;20099;-74
2022/07/06 03:16:55;;;;;;;6.65;2.35;;;;;;;24.26;56.65;100409.50;2090182;28;20071;-74
2022/07/06 03:18:17;;;;;;;8.00;2.42;;;;;;;24.28;56.83;100426.50;2094649;28;20143;-75
2022/07/06 03:19:40;;;;;;;6.43;2.33;;;;;;;24.29;56.57;100433.63;2085564;28;20032;-75
2022/07/06 03:21:04;;;;;;;6.53;1.75;;;;;;;24.34;56.54;100426.22;2098192;28;20040;-75
2022/07/06 03:22:28;;;;;;;6.55;2.63;;;;;;;24.37;56.75;100411.69;2100583;28;20135;-75
2022/07/06 03:23:51;;;;;;;7.38;2.20;;;;;;;24.39;56.36;100429.59;2095876;28;20480;-75
2022/07/06 03:25:12;;;;;;;5.75;1.90;;;;;;;24.42;56.48;100424.03;2097133;28;20036;-74
2022/07/06 03:26:37;;;;;;;7.07;2.78;;;;;;;24.49;56.26;100419.22;2100292;28;20054;-74
2022/07/06 03:27:58;;;;;;;5.60;2.08;;;;;;;24.56;56.11;100426.06;2104954;28;20048;-75
2022/07/06 03:29:21;;;;;;;6.43;2.33;;;;;;;24.58;55.91;100416.97;2102599;28;20484;-75
2022/07/06 03:30:43;;;;;;;6.50;2.33;;;;;;;24.65;55.54;100424.78;2094196;28;20482;-74
2022/07/06 03:32:07;;;;;;;4.95;2.60;;;;;;;24.73;55.37;100433.38;2100396;28;20051;-75
2022/07/06 03:33:28;;;;;;;4.38;2.15;;;;;;;24.79;55.35;100427.69;2102364;28;20055;-75
2022/07/06 03:34:51;;;;;;;7.10;1.90;;;;;;;24.85;55.22;100428.25;2103796;28;20044;-75
2022/07/06 03:36:12;;;;;;;10.43;2.30;;;;;;;24.93;54.87;100419.81;2103043;28;20047;-75
2022/07/06 03:37:37;;;;;;;5.38;2.15;;;;;;;24.98;54.67;100424.06;2094201;28;20139;-75
2022/07/06 03:38:59;;;;;;;5.82;2.33;;;;;;;25.04;54.59;100412.06;2092313;28;20048;-75
2022/07/06 03:40:22;;;;;;;5.95;2.15;;;;;;;25.11;54.50;100432.41;2092513;28;20544;-75
2022/07/06 03:41:46;;;;;;;6.45;2.70;;;;;;;25.17;54.25;100424.00;2096526;28;20086;-74
2022/07/06 03:43:09;;;;;;;8.68;2.58;;;;;;;25.25;54.15;100415.53;2101379;28;20044;-75
2022/07/06 03:44:32;;;;;;;6.93;2.10;;;;;;;25.32;54.28;100427.78;2094291;28;20067;-74
2022/07/06 03:45:55;;;;;;;6.90;1.73;;;;;;;25.40;53.94;100414.75;2091970;28;20048;-74
2022/07/06 03:47:17;;;;;;;6.93;2.55;;;;;;;25.48;53.92;100417.03;2094836;28;20078;-74
2022/07/06 03:48:39;;;;;;;5.68;2.00;;;;;;;25.54;53.64;100427.53;2101135;28;20047;-75
2022/07/06 03:50:02;;;;;;;8.35;2.00;;;;;;;25.62;53.29;100426.22;2103465;28;20056;-75
2022/07/06 03:51:25;;;;;;;4.38;1.67;;;;;;;25.69;53.19;100426.78;2094288;28;20045;-75
2022/07/06 03:52:50;;;;;;;9.15;2.13;;;;;;;25.78;53.29;100412.78;2100369;28;20066;-75
2022/07/06 03:54:12;;;;;;;7.47;1.60;;;;;;;25.85;53.15;100437.69;2094667;28;20449;-75
2022/07/06 03:55:35;;;;;;;5.82;2.10;;;;;;;25.92;52.92;100429.16;2091759;28;20450;-75
2022/07/06 03:57:00;;;;;;;5.22;1.80;;;;;;;26.01;52.49;100425.94;2092846;28;20044;-75
2022/07/06 03:58:23;;;;;;;7.85;2.22;;;;;;;26.08;52.32;100424.66;2094028;28;20466;-75
2022/07/06 03:59:45;;;;;;;7.07;1.80;;;;;;;26.18;52.00;100428.66;2090956;28;20082;-74
2022/07/06 04:01:07;;;;;;;10.35;1.70;;;;;;;26.27;51.89;100430.00;2108265;28;20055;-74
2022/07/06 04:02:29;;;;;;;5.05;2.08;;;;;;;26.37;51.19;100436.66;2096925;28;20080;-74
2022/07/06 04:03:51;;;;;;;;;;;;;;;26.42;51.03;100433.69;2101171;28;20036;-74
2022/07/06 04:05:15;;;;;;;7.65;2.20;;;;;;;26.51;51.10;100446.75;2105713;28;19924;-74
2022/07/06 04:06:38;;;;;;;7.50;2.10;;;;;;;26.61;51.09;100447.09;2102556;28;20040;-75
2022/07/06 04:08:03;;;;;;;7.30;1.92;;;;;;;26.71;50.86;100445.63;2098754;28;20044;-74
2022/07/06 04:09:32;;;;;;;4.22;2.17;;;;;;;26.83;50.64;100450.34;2097294;28;20043;-74
2022/07/06 04:10:53;;;;;;;7.75;2.15;;;;;;;26.91;50.28;100462.50;2108361;28;20048;-74
2022/07/06 04:12:16;;;;;;;6.65;1.77;;;;;;;27.01;50.06;100454.75;2113779;28;20504;-75
2022/07/06 04:13:38;;;;;;;5.68;1.85;;;;;;;27.12;49.62;100459.53;2100771;28;20052;-75
2022/07/06 04:15:01;;;;;;;5.53;1.77;;;;;;;27.22;49.52;100449.94;2100034;28;20036;-75
2022/07/06 04:16:24;;;;;;;10.27;1.83;;;;;;;27.32;49.22;100461.97;2102377;28;20440;-75
2022/07/06 04:17:51;;;;;;;6.63;1.92;;;;;;;27.45;48.99;100462.13;2102650;28;20089;-75
2022/07/06 04:19:14;;;;;;;7.78;2.03;;;;;;;27.59;48.72;100457.66;2094325;28;20048;-75
2022/07/06 04:20:36;;;;;;;6.72;2.10;;;;;;;27.70;48.24;100449.75;2097265;28;20067;-74
2022/07/06 04:21:58;;;;;;;4.90;2.25;;;;;;;27.80;47.92;100457.34;2102642;28;20401;-74
2022/07/06 04:23:22;;;;;;;3.22;1.88;;;;;;;27.88;47.77;100466.78;2103099;28;20052;-75
2022/07/06 04:24:46;;;;;;;6.30;1.80;;;;;;;28.02;47.64;100464.09;2092506;28;20089;-74
2022/07/06 04:26:08;;;;;;;6.70;2.15;;;;;;;28.19;47.35;100456.78;2093232;28;20045;-75
2022/07/06 04:27:33;;;;;;;6.32;1.63;;;;;;;28.34;46.82;100462.13;2098544;28;20048;-75
2022/07/06 04:28:56;;;;;;;6.03;2.05;;;;;;;28.45;46.67;100456.88;2078988;28;20133;-75
2022/07/06 04:30:21;;;;;;;6.80;2.20;;;;;;;28.59;46.30;100460.56;2088523;28;20048;-75
2022/07/06 04:31:44;;;;;;;9.80;2.15;;;;;;;28.79;46.11;100462.91;2089940;28;20060;-75
2022/07/06 04:33:07;;;;;;;4.40;2.10;;;;;;;28.95;45.78;100462.81;2086115;28;20063;-75
2022/07/06 04:34:30;;;;;;;5.50;2.10;;;;;;;29.11;45.45;100469.84;2092153;28;20033;-75
2022/07/06 04:35:52;;;;;;;4.82;1.70;;;;;;;29.28;45.08;100466.88;2100339;28;20054;-74
2022/07/06 04:37:17;;;;;;;6.03;1.83;;;;;;;29.50;44.59;100470.91;2094817;28;20094;-75
2022/07/06 04:38:41;;;;;;;5.25;1.83;;;;;;;29.72;44.05;100471.19;2093425;28;20056;-74
2022/07/06 04:40:06;;;;;;;6.10;1.83;;;;;;;29.93;43.64;100474.34;2091721;28;20483;-75
2022/07/06 04:41:29;;;;;;;6.45;1.70;;;;;;;30.09;43.49;100472.28;2094436;28;20044;-75
2022/07/06 04:42:52;;;;;;;5.85;1.92;;;;;;;30.23;43.13;100476.75;2096858;28;20126;-75
2022/07/06 04:44:15;;;;;;;6.00;1.70;;;;;;;30.39;42.89;100480.16;2093425;28;20048;-75
2022/07/06 04:45:38;;;;;;;7.03;1.73;;;;;;;30.47;42.65;100478.59;2085937;28;20041;-75
2022/07/06 04:47:01;;;;;;;7.50;2.53;;;;;;;30.61;42.21;100471.31;2086009;28;20060;-75
2022/07/06 04:48:24;;;;;;;6.70;1.92;;;;;;;30.69;42.08;100471.63;2088752;28;20078;-75
2022/07/06 04:49:46;;;;;;;3.58;1.58;;;;;;;30.81;41.41;100476.19;2088150;28;20143;-76
2022/07/06 04:51:09;;;;;;;5.25;2.08;;;;;;;30.85;41.24;100481.28;2086071;28;20060;-75
2022/07/06 04:52:31;;;;;;;6.07;1.90;;;;;;;30.89;40.99;100482.84;2085822;28;20453;-75
2022/07/06 04:53:55;;;;;;;7.47;2.00;;;;;;;31.05;40.68;100477.13;2083423;28;20409;-75
2022/07/06 04:55:19;;;;;;;7.53;2.13;;;;;;;31.16;40.65;100487.28;2088029;28;20049;-75
2022/07/06 04:56:43;;;;;;;5.60;2.17;;;;;;;31.23;40.27;100477.66;2088266;28;20066;-75
2022/07/06 04:58:06;;;;;;;7.78;2.10;;;;;;;31.36;40.17;100491.25;2091344;28;20486;-75
2022/07/06 04:59:29;;;;;;;5.97;1.88;;;;;;;31.43;39.87;100484.34;2085551;28;20186;-75
2022/07/06 05:00:51;;;;;;;6.07;1.80;;;;;;;31.57;39.79;100490.47;2090531;28;20452;-75
2022/07/06 05:02:13;;;;;;;5.88;1.92;;;;;;;31.83;40.07;100498.56;2099337;28;20040;-75
2022/07/06 05:03:40;;;;;;;5.80;2.17;;;;;;;32.05;39.56;100494.03;2093142;28;20139;-75
2022/07/06 05:05:01;;;;;;;6.70;2.17;;;;;;;32.18;39.50;100493.97;2092332;28;20474;-75
2022/07/06 05:06:24;;;;;;;5.60;2.45;;;;;;;32.32;38.75;100499.22;2093877;28;20136;-75
2022/07/06 05:07:46;;;;;;;6.75;2.25;;;;;;;32.49;38.93;100492.44;2085055;28;20048;-75
2022/07/06 05:09:10;;;;;;;4.38;2.13;;;;;;;32.74;38.45;100497.69;2092455;28;20048;-75
2022/07/06 05:10:33;;;;;;;6.03;2.00;;;;;;;32.94;38.30;100489.75;2087192;28;20060;-75
2022/07/06 05:11:56;;;;;;;6.90;2.30;;;;;;;33.13;38.27;100495.44;2099750;28;20048;-75
2022/07/06 05:13:18;;;;;;;7.10;2.25;;;;;;;33.41;38.09;100486.66;2102095;28;20446;-75
2022/07/06 05:14:41;;;;;;;7.80;2.03;;;;;;;33.64;37.92;100490.22;2101663;28;20122;-75
2022/07/06 05:16:04;;;;;;;8.40;2.00;;;;;;;33.75;37.62;100501.16;2090361;28;20044;-75
2022/07/06 05:17:27;;;;;;;9.50;2.10;;;;;;;33.96;37.42;100493.84;2101282;28;20040;-75
2022/07/06 05:18:50;;;;;;;5.68;2.00;;;;;;;34.10;37.31;100491.78;2094489;28;20047;-74
2022/07/06 05:20:12;;;;;;;5.40;1.77;;;;;;;34.28;37.15;100501.16;2092675;28;20094;-75
2022/07/06 05:21:37;;;;;;;8.05;2.10;;;;;;;34.52;36.94;100496.28;2094147;28;20097;-75
2022/07/06 05:23:03;;;;;;;5.53;1.73;;;;;;;34.66;36.84;100501.38;2094775;28;20048;-75
2022/07/06 05:24:29;;;;;;;7.50;2.15;;;;;;;34.73;36.49;100497.09;2094231;28;20060;-75
2022/07/06 05:25:52;;;;;;;8.07;2.20;;;;;;;34.77;36.42;100516.94;2099367;28;20058;-75
2022/07/06 05:27:13;;;;;;;7.93;2.17;;;;;;;34.93;36.11;100508.16;2093159;28;20060;-75
2022/07/06 05:28:36;;;;;;;5.65;1.98;;;;;;;34.96;35.66;100495.06;2093258;28;20055;-75
2022/07/06 05:29:59;;;;;;;7.90;2.45;;;;;;;34.97;35.60;100512.38;2098516;28;20108;-75
2022/07/06 05:31:22;;;;;;;5.65;2.08;;;;;;;34.94;35.45;100516.28;2102213;28;20058;-75
2022/07/06 05:32:45;;;;;;;4.90;1.80;;;;;;;34.87;35.04;100520.56;2098091;28;20060;-75
2022/07/06 05:34:07;;;;;;;5.70;1.83;;;;;;;34.79;35.19;100520.38;2093757;28;20082;-75
2022/07/06 05:35:31;;;;;;;5.65;1.90;;;;;;;34.79;34.83;100510.28;2099590;28;20443;-75
2022/07/06 05:36:55;;;;;;;8.30;2.08;;;;;;;34.77;34.65;100519.66;2093801;28;20433;-75
2022/07/06 05:38:18;;;;;;;3.28;1.65;;;;;;;34.76;34.87;100516.06;2089441;28;20049;-76
2022/07/06 05:39:43;;;;;;;6.78;2.22;;;;;;;34.75;34.77;100517.06;2102671;28;20044;-75
2022/07/06 05:41:07;;;;;;;9.63;2.00;;;;;;;34.76;34.75;100534.38;2098239;28;20052;-76
2022/07/06 05:42:30;;;;;;;6.85;1.67;;;;;;;34.72;34.72;100525.53;2099845;28;20048;-75
2022/07/06 05:43:51;;;;;;;6.15;1.85;;;;;;;34.67;34.94;100532.41;2093277;28;20066;-75
2022/07/06 05:45:14;;;;;;;5.97;2.03;;;;;;;34.63;35.15;100529.09;2095851;28;20044;-75
2022/07/06 05:46:37;;;;;;;4.70;1.70;;;;;;;34.63;35.24;100528.22;2094582;28;20040;-75
2022/07/06 05:51:34;;;;;;;6.47;2.40;;;;;;;34.88;35.05;100532.41;2079046;28;20058;-74
2022/07/06 05:52:57;;;;;;;7.10;1.85;;;;;;;35.01;34.77;100531.19;2095631;28;20036;-75
2022/07/06 05:54:20;;;;;;;9.02;2.50;;;;;;;35.06;34.30;100534.38;2094416;28;20056;-75
2022/07/06 05:55:45;;;;;;;5.53;1.70;;;;;;;35.13;33.97;100543.78;2098994;28;20512;-75
2022/07/06 05:57:08;;;;;;;6.93;2.05;;;;;;;35.17;33.90;100536.16;2100557;28;20048;-75
2022/07/06 05:58:31;;;;;;;9.77;2.58;;;;;;;35.31;33.82;100534.94;2096690;28;20426;-75
2022/07/06 05:59:55;;;;;;;6.90;2.08;;;;;;;35.47;33.13;100536.13;2093297;28;20068;-75
2022/07/06 06:01:17;;;;;;;6.97;2.10;;;;;;;35.50;33.14;100540.47;2093641;28;20045;-75
2022/07/06 06:02:45;;;;;;;9.13;2.08;;;;;;;35.64;33.24;100541.94;2096491;28;20048;-75
2022/07/06 06:04:11;;;;;;;6.85;1.90;;;;;;;35.82;33.03;100540.25;2094217;28;20089;-75
2022/07/06 06:05:34;;;;;;;7.55;2.00;;;;;;;36.02;32.65;100539.25;2099540;28;20056;-75
2022/07/06 06:07:01;;;;;;;10.80;2.83;;;;;;;36.12;32.58;100530.97;2099502;28;20044;-74
2022/07/06 06:08:23;;;;;;;8.10;1.70;;;;;;;36.22;32.97;100543.75;2101989;28;20503;-75
2022/07/06 06:09:47;;;;;;;7.88;2.00;;;;;;;36.36;32.77;100539.69;2093746;28;20056;-75
2022/07/06 06:11:11;;;;;;;4.82;2.10;;;;;;;36.40;32.71;100534.75;2093536;28;20489;-75
2022/07/06 06:12:36;;;;;;;4.78;1.98;;;;;;;36.37;32.75;100540.53;2100255;28;20409;-75
2022/07/06 06:13:58;;;;;;;7.15;2.22;;;;;;;36.28;33.08;100540.44;2099805;28;20194;-75
2022/07/06 06:15:20;;;;;;;7.25;2.30;;;;;;;35.97;33.80;100543.44;2093428;28;20052;-75
2022/07/06 06:16:42;;;;;;;;;;;;;;;35.56;34.22;100553.63;2098504;28;20422;-75
2022/07/06 06:18:04;;;;;;;6.53;1.83;;;;;;;35.58;34.68;100549.72;2104137;28;19930;-75
2022/07/06 06:19:26;;;;;;;;;;;;;;;35.77;34.19;100548.06;2108094;28;20492;-75
2022/07/06 06:20:49;;;;;;;8.80;2.53;;;;;;;36.08;33.50;100541.41;2104896;28;20427;-75
2022/07/06 06:22:11;;;;;;;6.53;2.45;;;;;;;36.05;33.51;100558.19;2103160;28;20059;-75
2022/07/06 06:23:34;;;;;;;9.73;2.25;;;;;;;36.14;33.37;100543.59;2108134;28;20071;-74
2022/07/06 06:24:56;;;;;;;6.72;2.00;;;;;;;35.97;33.32;100550.66;2101459;28;20056;-75
2022/07/06 06:26:20;;;;;;;5.57;2.10;;;;;;;35.85;33.44;100546.31;2094969;28;20072;-75
2022/07/06 06:27:43;;;;;;;7.70;2.33;;;;;;;35.64;34.09;100550.19;2098887;28;20405;-75
2022/07/06 06:29:06;;;;;;;7.55;2.03;;;;;;;35.73;33.98;100554.84;2094707;28;20048;-74
2022/07/06 06:30:27;;;;;;;8.90;2.08;;;;;;;35.80;33.68;100547.75;2100519;28;20086;-75
2022/07/06 06:31:50;;;;;;;6.05;2.20;;;;;;;35.92;33.67;100549.34;2110049;28;20044;-75